createdAt,value
2022-12-31T00:02:14.187Z,2.37
2022-12-31T00:04:59.625Z,2.43
2022-12-31T00:07:44.484Z,2.63
2022-12-31T00:10:29.453Z,2.92
2022-12-31T00:13:14.374Z,2.26
2022-12-31T00:15:59.475Z,2.14
2022-12-31T00:18:44.433Z,2.24
2022-12-31T00:21:29.338Z,2.11
2022-12-31T00:24:14.312Z,2.22
2022-12-31T00:26:59.239Z,2.21
2022-12-31T00:29:44.143Z,2.19
2022-12-31T00:32:29.108Z,2.01
2022-12-31T00:35:14.041Z,2.15
2022-12-31T00:37:59.033Z,2.19
2022-12-31T00:40:44.005Z,1.98
2022-12-31T00:43:28.867Z,2.12
2022-12-31T00:46:13.724Z,2.22
2022-12-31T00:48:58.619Z,1.95
2022-12-31T00:51:43.498Z,2.14
2022-12-31T00:54:28.489Z,1.90
2022-12-31T00:57:13.243Z,2.07
2022-12-31T00:59:58.026Z,1.86
2022-12-31T01:02:43.045Z,1.96
2022-12-31T01:05:27.901Z,1.99
2022-12-31T01:08:12.834Z,2.04
2022-12-31T01:10:57.745Z,2.08
2022-12-31T01:13:42.602Z,1.96
2022-12-31T01:16:27.387Z,2.16
2022-12-31T01:19:12.502Z,2.14
2022-12-31T01:21:57.702Z,2.18
2022-12-31T01:24:42.551Z,2.13
2022-12-31T01:27:27.510Z,2.31
2022-12-31T01:30:12.229Z,2.18
2022-12-31T01:32:57.099Z,2.50
2022-12-31T01:35:41.848Z,2.44
2022-12-31T01:38:26.689Z,2.28
2022-12-31T01:41:11.811Z,2.15
2022-12-31T01:43:56.713Z,2.50
2022-12-31T01:46:41.642Z,2.30
2022-12-31T01:49:26.500Z,2.37
2022-12-31T01:52:11.637Z,2.44
2022-12-31T01:54:56.662Z,2.05
2022-12-31T01:57:41.519Z,2.09
2022-12-31T02:00:26.244Z,2.04
2022-12-31T02:03:11.491Z,2.03
2022-12-31T02:05:56.611Z,2.12
2022-12-31T02:08:42.392Z,2.08
2022-12-31T02:11:27.416Z,1.72
2022-12-31T02:14:12.293Z,2.11
2022-12-31T02:16:57.213Z,1.94
2022-12-31T02:19:42.087Z,1.75
2022-12-31T02:22:26.933Z,2.03
2022-12-31T02:25:12.311Z,2.07
2022-12-31T02:27:57.132Z,1.92
2022-12-31T02:30:41.873Z,2.15
2022-12-31T02:33:26.684Z,2.02
2022-12-31T02:36:11.580Z,1.94
2022-12-31T02:38:56.342Z,1.91
2022-12-31T02:41:41.142Z,1.91
2022-12-31T02:44:26.023Z,1.96
2022-12-31T02:47:11.011Z,1.90
2022-12-31T02:49:55.745Z,1.92
2022-12-31T02:52:40.778Z,1.85
2022-12-31T02:55:25.634Z,1.77
2022-12-31T02:58:10.575Z,1.75
2022-12-31T03:00:55.621Z,1.82
2022-12-31T03:03:40.833Z,1.72
2022-12-31T03:06:28.404Z,1.86
2022-12-31T03:09:13.273Z,1.91
2022-12-31T03:11:58.175Z,1.74
2022-12-31T03:14:43.034Z,1.73
2022-12-31T03:17:27.916Z,1.76
2022-12-31T03:20:12.932Z,1.79
2022-12-31T03:22:57.734Z,1.73
2022-12-31T03:25:42.727Z,1.83
2022-12-31T03:28:27.474Z,1.93
2022-12-31T03:31:12.516Z,1.79
2022-12-31T03:33:57.294Z,1.73
2022-12-31T03:36:42.128Z,1.71
2022-12-31T03:39:27.109Z,1.63
2022-12-31T03:42:11.974Z,1.79
2022-12-31T03:44:56.949Z,1.77
2022-12-31T03:47:41.764Z,1.84
2022-12-31T03:50:26.793Z,1.68
2022-12-31T03:53:11.738Z,1.75
2022-12-31T03:55:56.672Z,1.85
2022-12-31T03:58:41.348Z,1.83
2022-12-31T04:01:26.502Z,1.76
2022-12-31T04:04:11.918Z,1.74
2022-12-31T04:06:56.792Z,1.89
2022-12-31T04:09:41.833Z,1.92
2022-12-31T04:12:26.537Z,1.63
2022-12-31T04:15:11.435Z,1.90
2022-12-31T04:17:56.192Z,1.82
2022-12-31T04:20:41.124Z,1.67
2022-12-31T04:23:25.906Z,1.64
2022-12-31T04:26:10.946Z,1.78
2022-12-31T04:28:55.786Z,1.72
2022-12-31T04:31:40.843Z,1.74
2022-12-31T04:34:25.737Z,1.79
2022-12-31T04:37:10.542Z,1.67
2022-12-31T04:39:58.972Z,1.88
2022-12-31T04:42:46.927Z,1.89
2022-12-31T04:45:31.819Z,1.79
2022-12-31T04:48:16.737Z,1.94
2022-12-31T04:51:01.467Z,1.79
2022-12-31T04:53:46.420Z,1.79
2022-12-31T04:56:31.296Z,1.90
2022-12-31T04:59:16.449Z,1.84
2022-12-31T05:02:01.405Z,1.80
2022-12-31T05:04:46.457Z,1.88
2022-12-31T05:07:31.373Z,1.66
2022-12-31T05:10:16.158Z,1.73
2022-12-31T05:13:01.198Z,1.65
2022-12-31T05:15:46.162Z,1.54
2022-12-31T05:18:31.202Z,1.74
2022-12-31T05:21:16.226Z,1.84
2022-12-31T05:24:01.130Z,1.72
2022-12-31T05:26:46.076Z,1.86
2022-12-31T05:29:31.021Z,1.80
2022-12-31T05:32:16.169Z,1.81
2022-12-31T05:35:00.951Z,2.03
2022-12-31T05:37:45.888Z,1.68
2022-12-31T05:40:30.692Z,1.61
2022-12-31T05:43:15.643Z,1.61
2022-12-31T05:46:00.696Z,1.81
2022-12-31T05:48:45.478Z,1.80
2022-12-31T05:51:30.447Z,1.66
2022-12-31T05:54:15.413Z,1.81
2022-12-31T05:57:00.485Z,1.72
2022-12-31T05:59:45.279Z,1.89
2022-12-31T06:02:30.134Z,1.73
2022-12-31T06:05:14.943Z,1.80
2022-12-31T06:07:59.991Z,1.63
2022-12-31T06:10:44.841Z,1.84
2022-12-31T06:13:29.732Z,1.67
2022-12-31T06:16:14.820Z,1.57
2022-12-31T06:19:00.080Z,1.69
2022-12-31T06:21:44.988Z,1.72
2022-12-31T06:24:29.875Z,1.68
2022-12-31T06:27:14.753Z,1.65
2022-12-31T06:29:59.587Z,1.56
2022-12-31T06:32:44.637Z,1.69
2022-12-31T06:35:29.645Z,1.49
2022-12-31T06:38:14.500Z,1.69
2022-12-31T06:40:59.453Z,1.59
2022-12-31T06:43:44.321Z,1.52
2022-12-31T06:46:29.402Z,1.44
2022-12-31T06:49:14.231Z,1.42
2022-12-31T06:51:59.184Z,1.28
2022-12-31T06:54:44.121Z,1.29
2022-12-31T06:57:29.170Z,1.45
2022-12-31T07:00:14.155Z,1.51
2022-12-31T07:02:59.040Z,1.42
2022-12-31T07:05:43.945Z,1.50
2022-12-31T07:08:28.813Z,1.43
2022-12-31T07:11:13.691Z,1.34
2022-12-31T07:13:58.424Z,1.42
2022-12-31T07:16:43.273Z,1.42
2022-12-31T07:19:28.103Z,1.37
2022-12-31T07:22:13.049Z,1.62
2022-12-31T07:24:57.901Z,1.49
2022-12-31T07:27:42.774Z,1.43
2022-12-31T07:30:27.846Z,1.34
2022-12-31T07:33:12.896Z,1.28
2022-12-31T07:35:57.832Z,1.40
2022-12-31T07:38:42.635Z,1.48
2022-12-31T07:41:27.469Z,1.38
2022-12-31T07:44:12.374Z,1.40
2022-12-31T07:46:57.313Z,1.51
2022-12-31T07:49:42.745Z,1.21
2022-12-31T07:52:27.491Z,1.18
2022-12-31T07:55:12.466Z,1.27
2022-12-31T07:57:57.380Z,1.27
2022-12-31T08:00:42.237Z,1.31
2022-12-31T08:03:27.007Z,1.17
2022-12-31T08:06:12.088Z,1.19
2022-12-31T08:08:56.747Z,1.28
2022-12-31T08:11:41.626Z,1.29
2022-12-31T08:14:26.434Z,1.22
2022-12-31T08:17:11.343Z,1.10
2022-12-31T08:19:56.344Z,1.15
2022-12-31T08:22:41.140Z,1.20
2022-12-31T08:25:26.112Z,1.18
2022-12-31T08:28:10.968Z,1.14
2022-12-31T08:30:55.951Z,1.19
2022-12-31T08:33:40.664Z,1.20
2022-12-31T08:36:25.522Z,1.28
2022-12-31T08:39:10.471Z,1.18
2022-12-31T08:41:55.781Z,1.30
2022-12-31T08:44:40.746Z,1.33
2022-12-31T08:47:25.625Z,1.47
2022-12-31T08:50:10.500Z,1.32
2022-12-31T08:52:55.433Z,1.34
2022-12-31T08:55:40.234Z,1.45
2022-12-31T08:58:25.071Z,1.27
2022-12-31T09:01:10.067Z,1.52
2022-12-31T09:03:54.892Z,1.64
2022-12-31T09:06:39.812Z,1.49
2022-12-31T09:09:24.836Z,1.43
2022-12-31T09:12:09.646Z,1.62
2022-12-31T09:14:54.535Z,1.61
2022-12-31T09:17:39.343Z,1.42
2022-12-31T09:20:24.192Z,1.21
2022-12-31T09:23:09.122Z,1.45
2022-12-31T09:25:54.147Z,1.36
2022-12-31T09:28:39.084Z,1.33
2022-12-31T09:31:24.056Z,1.36
2022-12-31T09:34:08.864Z,1.31
2022-12-31T09:36:53.656Z,1.26
2022-12-31T09:39:38.611Z,1.45
2022-12-31T09:42:23.454Z,1.47
2022-12-31T09:45:08.597Z,1.45
2022-12-31T09:47:53.515Z,1.23
2022-12-31T09:50:38.415Z,1.61
2022-12-31T09:53:23.313Z,1.63
2022-12-31T09:56:08.260Z,1.16
2022-12-31T09:58:53.220Z,1.15
2022-12-31T10:01:38.133Z,1.21
2022-12-31T10:04:23.522Z,1.08
2022-12-31T10:07:08.351Z,1.28
2022-12-31T10:09:53.299Z,1.06
2022-12-31T10:12:38.226Z,1.02
2022-12-31T10:15:23.050Z,1.16
2022-12-31T10:18:07.955Z,1.14
2022-12-31T10:20:52.898Z,1.17
2022-12-31T10:23:37.786Z,1.16
2022-12-31T10:26:22.503Z,1.08
2022-12-31T10:29:07.492Z,1.18
2022-12-31T10:31:52.275Z,0.96
2022-12-31T10:34:37.271Z,0.99
2022-12-31T10:37:22.044Z,1.00
2022-12-31T10:40:06.930Z,1.03
2022-12-31T10:42:51.792Z,1.00
2022-12-31T10:45:36.688Z,0.97
2022-12-31T10:48:21.686Z,1.14
2022-12-31T10:51:06.619Z,1.02
2022-12-31T10:53:51.707Z,1.18
2022-12-31T10:56:36.487Z,1.22
2022-12-31T10:59:21.323Z,1.23
2022-12-31T11:02:06.410Z,1.14
2022-12-31T11:04:51.629Z,1.23
2022-12-31T11:07:36.381Z,1.01
2022-12-31T11:10:21.376Z,1.09
2022-12-31T11:13:06.267Z,1.03
2022-12-31T11:15:51.020Z,0.97
2022-12-31T11:18:35.965Z,0.98
2022-12-31T11:21:26.348Z,0.88
2022-12-31T11:24:13.097Z,0.83
2022-12-31T11:26:58.033Z,0.99
2022-12-31T11:29:42.793Z,0.92
2022-12-31T11:32:27.722Z,0.97
2022-12-31T11:35:12.778Z,0.99
2022-12-31T11:37:57.743Z,1.06
2022-12-31T11:40:42.577Z,0.95
2022-12-31T11:43:27.648Z,0.88
2022-12-31T11:46:13.237Z,0.94
2022-12-31T11:48:58.581Z,0.93
2022-12-31T11:51:49.973Z,1.00
2022-12-31T11:54:35.588Z,1.03
2022-12-31T11:57:20.574Z,1.21
2022-12-31T12:00:05.514Z,0.91
2022-12-31T12:02:50.391Z,1.14
2022-12-31T12:05:35.265Z,0.97
2022-12-31T12:08:20.151Z,1.13
2022-12-31T12:11:05.015Z,1.25
2022-12-31T12:13:49.875Z,1.88
2022-12-31T12:16:34.722Z,1.31
2022-12-31T12:19:19.578Z,1.31
2022-12-31T12:22:04.467Z,0.99
2022-12-31T12:24:49.408Z,0.98
2022-12-31T12:27:34.299Z,1.14
2022-12-31T12:30:19.147Z,1.25
2022-12-31T12:33:04.057Z,1.09
2022-12-31T12:35:48.961Z,1.02
2022-12-31T12:38:33.809Z,0.89
2022-12-31T12:41:18.682Z,1.06
2022-12-31T12:44:03.502Z,1.07
2022-12-31T12:46:48.746Z,1.15
2022-12-31T12:49:33.696Z,1.25
2022-12-31T12:52:18.843Z,1.32
2022-12-31T12:55:03.795Z,1.31
2022-12-31T12:57:48.829Z,1.38
2022-12-31T13:00:33.761Z,2.12
2022-12-31T13:03:18.468Z,1.48
2022-12-31T13:06:03.356Z,1.55
2022-12-31T13:08:48.355Z,1.55
2022-12-31T13:11:33.304Z,1.35
2022-12-31T13:14:18.167Z,1.31
2022-12-31T13:17:03.205Z,1.35
2022-12-31T13:19:47.897Z,1.18
2022-12-31T13:22:32.935Z,1.27
2022-12-31T13:25:17.850Z,1.36
2022-12-31T13:28:02.729Z,1.50
2022-12-31T13:30:47.613Z,1.53
2022-12-31T13:33:32.758Z,1.34
2022-12-31T13:36:17.623Z,1.55
2022-12-31T13:39:02.514Z,1.90
2022-12-31T13:41:47.606Z,1.46
2022-12-31T13:44:32.405Z,1.56
2022-12-31T13:47:17.333Z,1.57
2022-12-31T13:50:02.124Z,1.57
2022-12-31T13:52:46.997Z,1.31
2022-12-31T13:55:31.759Z,1.35
2022-12-31T13:58:16.711Z,1.46
2022-12-31T14:01:02.968Z,1.44
2022-12-31T14:03:48.085Z,1.46
2022-12-31T14:06:33.053Z,1.45
2022-12-31T14:09:17.763Z,1.32
2022-12-31T14:12:02.609Z,1.30
2022-12-31T14:14:47.382Z,1.44
2022-12-31T14:17:32.316Z,1.32
2022-12-31T14:20:17.291Z,1.44
2022-12-31T14:23:02.257Z,1.52
2022-12-31T14:25:47.236Z,1.36
2022-12-31T14:28:31.939Z,1.24
2022-12-31T14:31:17.097Z,1.50
2022-12-31T14:34:02.341Z,1.55
2022-12-31T14:36:47.163Z,1.84
2022-12-31T14:39:32.073Z,1.63
2022-12-31T14:42:16.957Z,1.63
2022-12-31T14:45:01.850Z,1.55
2022-12-31T14:47:46.639Z,1.49
2022-12-31T14:50:31.581Z,1.60
2022-12-31T14:53:16.347Z,1.36
2022-12-31T14:56:01.445Z,1.47
2022-12-31T14:58:46.247Z,1.68
2022-12-31T15:01:31.320Z,1.59
2022-12-31T15:04:16.519Z,1.62
2022-12-31T15:07:01.490Z,1.57
2022-12-31T15:09:46.350Z,1.54
2022-12-31T15:12:33.580Z,1.53
2022-12-31T15:15:18.786Z,1.63
2022-12-31T15:18:03.534Z,1.64
2022-12-31T15:20:48.449Z,2.12
2022-12-31T15:23:33.307Z,2.15
2022-12-31T15:26:18.250Z,1.93
2022-12-31T15:29:03.207Z,1.78
2022-12-31T15:31:47.933Z,1.93
2022-12-31T15:34:32.837Z,1.63
2022-12-31T15:37:17.657Z,1.47
2022-12-31T15:40:02.705Z,1.40
2022-12-31T15:42:50.194Z,1.47
2022-12-31T15:45:35.243Z,1.53
2022-12-31T15:48:20.229Z,1.84
2022-12-31T15:51:05.166Z,1.75
2022-12-31T15:53:50.322Z,1.74
2022-12-31T15:56:35.104Z,1.76
2022-12-31T15:59:20.064Z,1.71
2022-12-31T16:02:04.962Z,2.00
2022-12-31T16:04:50.229Z,1.94
2022-12-31T16:07:35.197Z,1.79
2022-12-31T16:10:20.043Z,1.90
2022-12-31T16:13:05.012Z,1.82
2022-12-31T16:15:49.795Z,2.05
2022-12-31T16:18:34.839Z,1.89
2022-12-31T16:21:19.642Z,1.86
2022-12-31T16:24:04.556Z,1.91
2022-12-31T16:26:49.759Z,1.95
2022-12-31T16:29:34.544Z,1.98
2022-12-31T16:32:19.372Z,1.97
2022-12-31T16:35:07.411Z,2.10
2022-12-31T16:37:57.223Z,2.36
2022-12-31T16:40:42.000Z,2.30
2022-12-31T16:43:26.866Z,2.06
2022-12-31T16:46:11.943Z,2.04
2022-12-31T16:48:57.184Z,2.15
2022-12-31T16:51:42.207Z,2.28
2022-12-31T16:54:27.088Z,2.23
2022-12-31T16:57:11.998Z,2.20
2022-12-31T16:59:56.973Z,2.17
2022-12-31T17:02:41.950Z,2.13
2022-12-31T17:05:27.301Z,2.09
2022-12-31T17:08:12.098Z,2.26
2022-12-31T17:10:57.118Z,2.45
2022-12-31T17:13:42.015Z,2.18
2022-12-31T17:16:26.961Z,2.13
2022-12-31T17:19:11.861Z,2.41
2022-12-31T17:21:56.708Z,2.42
2022-12-31T17:24:41.693Z,2.49
2022-12-31T17:27:26.739Z,2.60
2022-12-31T17:30:11.641Z,2.75
2022-12-31T17:32:56.455Z,2.66
2022-12-31T17:35:41.369Z,3.06
2022-12-31T17:38:26.447Z,3.48
2022-12-31T17:41:11.290Z,2.68
2022-12-31T17:43:56.312Z,2.35
2022-12-31T17:46:41.274Z,2.71
2022-12-31T17:49:26.081Z,2.86
2022-12-31T17:52:10.939Z,3.35
2022-12-31T17:54:55.917Z,3.93
2022-12-31T17:57:40.855Z,3.44
2022-12-31T18:00:25.989Z,3.76
2022-12-31T18:03:11.042Z,3.27
2022-12-31T18:05:56.293Z,2.94
2022-12-31T18:08:41.329Z,2.88
2022-12-31T18:11:26.007Z,2.80
2022-12-31T18:14:11.195Z,2.86
2022-12-31T18:16:56.083Z,2.99
2022-12-31T18:20:06.495Z,3.25
2022-12-31T18:22:46.459Z,3.12
2022-12-31T18:25:31.212Z,3.45
2022-12-31T18:28:16.156Z,3.55
2022-12-31T18:31:01.046Z,4.06
2022-12-31T18:33:46.087Z,4.22
2022-12-31T18:36:31.015Z,4.21
2022-12-31T18:39:15.931Z,4.30
2022-12-31T18:42:00.790Z,4.00
2022-12-31T18:44:45.767Z,4.48
2022-12-31T18:47:37.307Z,5.44
2022-12-31T18:50:22.750Z,5.35
2022-12-31T18:53:07.629Z,5.12
2022-12-31T18:55:52.704Z,4.75
2022-12-31T18:58:37.522Z,4.43
2022-12-31T19:01:22.614Z,4.64
2022-12-31T19:04:08.003Z,4.66
2022-12-31T19:06:52.761Z,4.89
2022-12-31T19:09:46.400Z,4.94
2022-12-31T19:12:32.318Z,5.33
2022-12-31T19:15:17.229Z,5.77
2022-12-31T19:18:02.111Z,6.19
2022-12-31T19:20:46.998Z,5.79
2022-12-31T19:23:31.825Z,6.46
2022-12-31T19:26:16.891Z,5.79
2022-12-31T19:29:01.807Z,5.45
2022-12-31T19:31:46.863Z,5.19
2022-12-31T19:34:32.147Z,5.76
2022-12-31T19:37:17.053Z,7.66
2022-12-31T19:40:01.785Z,6.21
2022-12-31T19:42:46.713Z,5.57
2022-12-31T19:45:31.616Z,5.45
2022-12-31T19:48:16.422Z,6.47
2022-12-31T19:51:01.202Z,5.96
2022-12-31T19:53:46.150Z,5.49
2022-12-31T19:56:31.169Z,5.34
2022-12-31T19:59:16.014Z,5.87
2022-12-31T20:02:01.121Z,7.01
2022-12-31T20:04:46.368Z,9.28
2022-12-31T20:07:31.342Z,7.53
2022-12-31T20:10:16.136Z,6.12
2022-12-31T20:13:01.016Z,8.17
2022-12-31T20:15:45.990Z,7.35
2022-12-31T20:18:31.009Z,5.32
2022-12-31T20:21:15.856Z,5.94
2022-12-31T20:24:00.637Z,6.38
2022-12-31T20:26:45.458Z,5.15
2022-12-31T20:29:30.349Z,5.64
2022-12-31T20:32:15.174Z,5.41
2022-12-31T20:35:00.154Z,5.50
2022-12-31T20:37:45.068Z,5.59
2022-12-31T20:40:30.102Z,6.26
2022-12-31T20:43:14.851Z,6.04
2022-12-31T20:45:59.830Z,6.00
2022-12-31T20:48:44.751Z,5.71
2022-12-31T20:51:29.689Z,6.61
2022-12-31T20:54:14.745Z,6.49
2022-12-31T20:57:00.210Z,5.55
2022-12-31T20:59:45.229Z,13.70
2022-12-31T21:02:41.301Z,7.14
2022-12-31T21:05:27.437Z,6.35
2022-12-31T21:08:12.502Z,6.05
2022-12-31T21:10:57.376Z,6.66
2022-12-31T21:13:42.176Z,6.97
2022-12-31T21:16:27.154Z,6.07
2022-12-31T21:19:12.256Z,6.17
2022-12-31T21:21:57.500Z,6.14
2022-12-31T21:24:42.360Z,5.91
2022-12-31T21:27:27.352Z,5.65
2022-12-31T21:30:19.930Z,6.03
2022-12-31T21:33:05.122Z,6.21
2022-12-31T21:35:53.770Z,5.72
2022-12-31T21:38:38.962Z,7.15
2022-12-31T21:41:24.252Z,6.16
2022-12-31T21:44:09.142Z,5.79
2022-12-31T21:47:33.466Z,6.31
2022-12-31T21:49:59.229Z,6.87
2022-12-31T21:52:44.094Z,5.93
2022-12-31T21:55:28.964Z,5.87
2022-12-31T21:58:29.166Z,6.04
2022-12-31T22:01:14.376Z,7.45
2022-12-31T22:03:59.563Z,6.10
2022-12-31T22:06:44.547Z,6.24
2022-12-31T22:09:29.365Z,6.92
2022-12-31T22:12:14.359Z,7.76
2022-12-31T22:15:14.318Z,6.84
2022-12-31T22:18:01.195Z,6.45
2022-12-31T22:20:46.054Z,6.94
2022-12-31T22:23:30.843Z,7.15
2022-12-31T22:26:15.734Z,7.27
2022-12-31T22:29:00.580Z,8.02
2022-12-31T22:31:45.457Z,7.36
2022-12-31T22:34:30.444Z,6.41
2022-12-31T22:37:46.392Z,7.17
2022-12-31T22:40:20.649Z,8.73
2022-12-31T22:43:05.275Z,8.85
2022-12-31T22:45:50.230Z,8.14
2022-12-31T22:48:35.186Z,6.79
2022-12-31T22:51:20.068Z,7.28
2022-12-31T22:54:05.004Z,7.00
2022-12-31T22:56:49.964Z,8.91
2022-12-31T22:59:34.941Z,6.97
2022-12-31T23:02:19.796Z,6.53
2022-12-31T23:05:16.249Z,6.32
2022-12-31T23:08:06.084Z,6.43
2022-12-31T23:10:55.262Z,6.93
2022-12-31T23:13:43.312Z,6.56
2022-12-31T23:16:32.791Z,7.62
2022-12-31T23:19:17.727Z,7.53
2022-12-31T23:22:02.632Z,8.24
2022-12-31T23:24:47.548Z,6.76
2022-12-31T23:27:32.220Z,6.00
2022-12-31T23:30:17.180Z,6.30
2022-12-31T23:33:02.144Z,7.39
2022-12-31T23:35:47.062Z,6.13
2022-12-31T23:38:31.911Z,7.06
2022-12-31T23:41:16.815Z,8.21
2022-12-31T23:44:01.735Z,6.15
2022-12-31T23:46:46.529Z,6.77
2022-12-31T23:49:31.375Z,7.01
2022-12-31T23:52:16.241Z,6.23
2022-12-31T23:55:01.195Z,7.22
2022-12-31T23:57:46.043Z,10.34
